Aviation Digital Data Service (ADDS)

Output produced by METARs form (1330 UTC 15 August 2018)
found at http://www.aviationweather.gov/adds/metars/
 
METAR text: KDTL 151315Z AUTO 00000KT 10SM CLR 15/12 A3003 RMK AO2
Conditions at: KDTL (DETROIT LAKES , MN, US) observed 1315 UTC 15 August 2018
Temperature: 15.0°C (59°F)
Dewpoint: 12.0°C (54°F) [RH = 82%]
Pressure (altimeter): 30.03 inches Hg (1017.0 mb)
Winds: calm
Visibility: 10 or more miles (16+ km)
Ceiling: at least 12,000 feet AGL
Clouds: sky clear below 12,000 feet AGL
Weather: automated observation with no human augmentation;
there may or may not be significant weather present at this time